sensor_id;sensor_type;location;lat;lon;timestamp;P1;durP1;ratioP1;P2;durP2;ratioP2
1507;SDS011;745;48.586;10.032;2022-08-19T00:00:37;24.03;;;21.70;;
1507;SDS011;745;48.586;10.032;2022-08-19T00:05:09;20.87;;;18.77;;
1507;SDS011;745;48.586;10.032;2022-08-19T00:09:40;21.20;;;19.23;;
1507;SDS011;745;48.586;10.032;2022-08-19T00:14:11;22.80;;;20.60;;
1507;SDS011;745;48.586;10.032;2022-08-19T00:18:43;20.30;;;18.47;;
1507;SDS011;745;48.586;10.032;2022-08-19T00:23:13;26.23;;;23.83;;
1507;SDS011;745;48.586;10.032;2022-08-19T00:27:45;26.10;;;23.40;;
1507;SDS011;745;48.586;10.032;2022-08-19T00:32:15;29.10;;;26.10;;
1507;SDS011;745;48.586;10.032;2022-08-19T00:36:46;30.40;;;27.33;;
1507;SDS011;745;48.586;10.032;2022-08-19T00:41:18;24.73;;;22.13;;
1507;SDS011;745;48.586;10.032;2022-08-19T00:45:51;26.07;;;23.57;;
1507;SDS011;745;48.586;10.032;2022-08-19T00:50:22;26.40;;;23.80;;
1507;SDS011;745;48.586;10.032;2022-08-19T00:54:53;25.63;;;23.23;;
1507;SDS011;745;48.586;10.032;2022-08-19T00:59:24;27.77;;;25.07;;
1507;SDS011;745;48.586;10.032;2022-08-19T01:03:55;30.13;;;27.10;;
1507;SDS011;745;48.586;10.032;2022-08-19T01:08:26;31.40;;;28.27;;
1507;SDS011;745;48.586;10.032;2022-08-19T01:12:58;30.17;;;27.07;;
1507;SDS011;745;48.586;10.032;2022-08-19T01:17:30;28.50;;;25.40;;
1507;SDS011;745;48.586;10.032;2022-08-19T01:22:02;30.13;;;26.90;;
1507;SDS011;745;48.586;10.032;2022-08-19T01:26:40;26.40;;;23.67;;
1507;SDS011;745;48.586;10.032;2022-08-19T01:31:15;26.37;;;23.77;;
1507;SDS011;745;48.586;10.032;2022-08-19T01:35:48;29.30;;;26.20;;
1507;SDS011;745;48.586;10.032;2022-08-19T01:40:25;27.80;;;24.97;;
1507;SDS011;745;48.586;10.032;2022-08-19T01:44:59;28.03;;;25.10;;
1507;SDS011;745;48.586;10.032;2022-08-19T01:49:30;31.17;;;28.00;;
1507;SDS011;745;48.586;10.032;2022-08-19T01:54:01;28.17;;;25.10;;
1507;SDS011;745;48.586;10.032;2022-08-19T01:58:34;27.27;;;24.40;;
1507;SDS011;745;48.586;10.032;2022-08-19T02:03:08;24.83;;;22.33;;
1507;SDS011;745;48.586;10.032;2022-08-19T02:07:41;27.03;;;24.23;;
1507;SDS011;745;48.586;10.032;2022-08-19T02:12:11;22.07;;;19.93;;
1507;SDS011;745;48.586;10.032;2022-08-19T02:16:42;27.53;;;24.70;;
1507;SDS011;745;48.586;10.032;2022-08-19T02:21:13;29.80;;;25.87;;
1507;SDS011;745;48.586;10.032;2022-08-19T02:25:45;30.37;;;27.17;;
1507;SDS011;745;48.586;10.032;2022-08-19T02:30:18;30.37;;;27.03;;
1507;SDS011;745;48.586;10.032;2022-08-19T02:34:49;30.23;;;26.77;;
1507;SDS011;745;48.586;10.032;2022-08-19T02:39:19;28.37;;;25.47;;
1507;SDS011;745;48.586;10.032;2022-08-19T02:43:50;32.60;;;27.90;;
1507;SDS011;745;48.586;10.032;2022-08-19T02:48:21;29.90;;;26.03;;
1507;SDS011;745;48.586;10.032;2022-08-19T02:52:53;27.60;;;23.90;;
1507;SDS011;745;48.586;10.032;2022-08-19T02:57:24;25.20;;;22.60;;
1507;SDS011;745;48.586;10.032;2022-08-19T03:01:55;25.13;;;22.60;;
1507;SDS011;745;48.586;10.032;2022-08-19T03:06:26;36.10;;;32.23;;
1507;SDS011;745;48.586;10.032;2022-08-19T03:10:56;28.17;;;25.17;;
1507;SDS011;745;48.586;10.032;2022-08-19T03:15:27;29.40;;;24.97;;
1507;SDS011;745;48.586;10.032;2022-08-19T03:19:57;32.90;;;29.07;;
1507;SDS011;745;48.586;10.032;2022-08-19T03:24:28;31.03;;;25.77;;
1507;SDS011;745;48.586;10.032;2022-08-19T03:29:01;31.00;;;27.03;;
1507;SDS011;745;48.586;10.032;2022-08-19T03:33:32;33.27;;;29.37;;
1507;SDS011;745;48.586;10.032;2022-08-19T03:38:04;30.40;;;27.20;;
1507;SDS011;745;48.586;10.032;2022-08-19T03:42:36;30.87;;;26.47;;
1507;SDS011;745;48.586;10.032;2022-08-19T03:47:07;28.47;;;24.53;;
1507;SDS011;745;48.586;10.032;2022-08-19T03:51:37;32.60;;;25.87;;
1507;SDS011;745;48.586;10.032;2022-08-19T03:56:09;29.90;;;26.07;;
1507;SDS011;745;48.586;10.032;2022-08-19T04:00:41;28.63;;;23.83;;
1507;SDS011;745;48.586;10.032;2022-08-19T04:05:12;27.70;;;23.67;;
1507;SDS011;745;48.586;10.032;2022-08-19T04:09:44;32.47;;;26.90;;
1507;SDS011;745;48.586;10.032;2022-08-19T04:14:16;28.87;;;25.07;;
1507;SDS011;745;48.586;10.032;2022-08-19T04:18:48;27.17;;;24.23;;
1507;SDS011;745;48.586;10.032;2022-08-19T04:23:19;30.10;;;26.00;;
1507;SDS011;745;48.586;10.032;2022-08-19T04:27:49;25.50;;;22.70;;
1507;SDS011;745;48.586;10.032;2022-08-19T04:32:20;25.40;;;22.00;;
1507;SDS011;745;48.586;10.032;2022-08-19T04:36:52;32.83;;;28.90;;
1507;SDS011;745;48.586;10.032;2022-08-19T04:41:23;32.63;;;27.50;;
1507;SDS011;745;48.586;10.032;2022-08-19T04:46:12;31.83;;;27.10;;
1507;SDS011;745;48.586;10.032;2022-08-19T04:50:43;26.10;;;23.30;;
1507;SDS011;745;48.586;10.032;2022-08-19T04:55:13;33.30;;;29.20;;
1507;SDS011;745;48.586;10.032;2022-08-19T04:59:44;31.33;;;26.57;;
1507;SDS011;745;48.586;10.032;2022-08-19T05:04:15;29.67;;;26.47;;
1507;SDS011;745;48.586;10.032;2022-08-19T05:08:50;32.27;;;28.23;;
1507;SDS011;745;48.586;10.032;2022-08-19T05:13:20;35.50;;;29.50;;
1507;SDS011;745;48.586;10.032;2022-08-19T05:17:51;31.73;;;26.10;;
1507;SDS011;745;48.586;10.032;2022-08-19T05:22:41;40.90;;;32.77;;
1507;SDS011;745;48.586;10.032;2022-08-19T05:27:14;38.30;;;30.20;;
1507;SDS011;745;48.586;10.032;2022-08-19T05:31:44;32.53;;;27.20;;
1507;SDS011;745;48.586;10.032;2022-08-19T05:36:16;33.20;;;28.30;;
1507;SDS011;745;48.586;10.032;2022-08-19T05:40:48;34.97;;;29.10;;
1507;SDS011;745;48.586;10.032;2022-08-19T05:45:19;33.17;;;26.93;;
1507;SDS011;745;48.586;10.032;2022-08-19T05:49:51;37.10;;;29.77;;
1507;SDS011;745;48.586;10.032;2022-08-19T05:54:22;41.53;;;33.50;;
1507;SDS011;745;48.586;10.032;2022-08-19T05:58:53;29.27;;;25.17;;
1507;SDS011;745;48.586;10.032;2022-08-19T06:03:24;33.17;;;27.80;;
1507;SDS011;745;48.586;10.032;2022-08-19T06:07:54;30.80;;;26.07;;
1507;SDS011;745;48.586;10.032;2022-08-19T06:12:25;27.63;;;24.63;;
1507;SDS011;745;48.586;10.032;2022-08-19T06:16:58;27.33;;;22.93;;
1507;SDS011;745;48.586;10.032;2022-08-19T06:21:30;29.13;;;26.00;;
1507;SDS011;745;48.586;10.032;2022-08-19T06:26:01;27.60;;;24.53;;
1507;SDS011;745;48.586;10.032;2022-08-19T06:30:32;28.87;;;25.43;;
1507;SDS011;745;48.586;10.032;2022-08-19T06:35:02;27.07;;;24.17;;
1507;SDS011;745;48.586;10.032;2022-08-19T06:39:35;31.47;;;27.40;;
1507;SDS011;745;48.586;10.032;2022-08-19T06:44:08;30.67;;;26.70;;
1507;SDS011;745;48.586;10.032;2022-08-19T06:48:39;38.30;;;30.10;;
1507;SDS011;745;48.586;10.032;2022-08-19T06:53:10;37.90;;;29.60;;
1507;SDS011;745;48.586;10.032;2022-08-19T06:57:41;33.87;;;27.13;;
1507;SDS011;745;48.586;10.032;2022-08-19T07:02:12;28.90;;;25.37;;
1507;SDS011;745;48.586;10.032;2022-08-19T07:06:43;27.77;;;24.77;;
1507;SDS011;745;48.586;10.032;2022-08-19T07:11:15;34.67;;;27.80;;
1507;SDS011;745;48.586;10.032;2022-08-19T07:15:48;35.97;;;28.27;;
1507;SDS011;745;48.586;10.032;2022-08-19T07:20:20;33.13;;;28.30;;
1507;SDS011;745;48.586;10.032;2022-08-19T07:24:51;32.10;;;27.10;;
1507;SDS011;745;48.586;10.032;2022-08-19T07:29:23;30.97;;;27.43;;
1507;SDS011;745;48.586;10.032;2022-08-19T07:33:55;28.47;;;24.73;;
1507;SDS011;745;48.586;10.032;2022-08-19T07:38:26;34.53;;;27.77;;
1507;SDS011;745;48.586;10.032;2022-08-19T07:42:57;29.70;;;25.60;;
1507;SDS011;745;48.586;10.032;2022-08-19T07:47:28;31.27;;;27.03;;
1507;SDS011;745;48.586;10.032;2022-08-19T07:52:00;30.67;;;25.60;;
1507;SDS011;745;48.586;10.032;2022-08-19T07:56:34;29.53;;;26.30;;
1507;SDS011;745;48.586;10.032;2022-08-19T08:01:05;28.47;;;25.27;;
1507;SDS011;745;48.586;10.032;2022-08-19T08:05:36;28.53;;;25.50;;
1507;SDS011;745;48.586;10.032;2022-08-19T08:10:25;32.50;;;27.00;;
1507;SDS011;745;48.586;10.032;2022-08-19T08:14:57;26.23;;;23.40;;
1507;SDS011;745;48.586;10.032;2022-08-19T08:19:31;31.33;;;27.80;;
1507;SDS011;745;48.586;10.032;2022-08-19T08:24:03;29.17;;;24.83;;
1507;SDS011;745;48.586;10.032;2022-08-19T08:28:34;34.17;;;29.30;;
1507;SDS011;745;48.586;10.032;2022-08-19T08:33:04;25.57;;;22.17;;
1507;SDS011;745;48.586;10.032;2022-08-19T08:37:35;23.20;;;20.80;;
1507;SDS011;745;48.586;10.032;2022-08-19T08:42:12;22.03;;;19.73;;
1507;SDS011;745;48.586;10.032;2022-08-19T08:47:09;30.70;;;26.87;;
1507;SDS011;745;48.586;10.032;2022-08-19T08:51:46;22.27;;;19.60;;
1507;SDS011;745;48.586;10.032;2022-08-19T08:56:19;24.33;;;21.73;;
1507;SDS011;745;48.586;10.032;2022-08-19T09:00:49;21.10;;;19.00;;
1507;SDS011;745;48.586;10.032;2022-08-19T09:05:20;25.47;;;22.77;;
1507;SDS011;745;48.586;10.032;2022-08-19T09:09:52;28.97;;;25.50;;
1507;SDS011;745;48.586;10.032;2022-08-19T09:19:27;26.10;;;22.60;;
1507;SDS011;745;48.586;10.032;2022-08-19T09:23:57;28.30;;;24.83;;
1507;SDS011;745;48.586;10.032;2022-08-19T09:28:28;29.13;;;26.10;;
1507;SDS011;745;48.586;10.032;2022-08-19T09:32:59;25.00;;;22.40;;
1507;SDS011;745;48.586;10.032;2022-08-19T09:37:30;29.43;;;25.20;;
1507;SDS011;745;48.586;10.032;2022-08-19T09:42:01;29.60;;;26.03;;
1507;SDS011;745;48.586;10.032;2022-08-19T09:46:33;25.10;;;22.40;;
1507;SDS011;745;48.586;10.032;2022-08-19T09:51:10;27.13;;;23.27;;
1507;SDS011;745;48.586;10.032;2022-08-19T09:55:43;27.90;;;23.63;;
1507;SDS011;745;48.586;10.032;2022-08-19T10:00:13;25.70;;;22.90;;
1507;SDS011;745;48.586;10.032;2022-08-19T10:04:44;25.87;;;23.23;;
1507;SDS011;745;48.586;10.032;2022-08-19T10:09:33;24.40;;;21.90;;
1507;SDS011;745;48.586;10.032;2022-08-19T10:14:05;25.27;;;21.20;;
1507;SDS011;745;48.586;10.032;2022-08-19T10:18:36;30.47;;;27.17;;
1507;SDS011;745;48.586;10.032;2022-08-19T10:23:08;25.47;;;22.73;;
1507;SDS011;745;48.586;10.032;2022-08-19T10:27:38;25.97;;;23.27;;
1507;SDS011;745;48.586;10.032;2022-08-19T10:32:09;21.40;;;19.20;;
1507;SDS011;745;48.586;10.032;2022-08-19T10:36:40;24.00;;;21.50;;
1507;SDS011;745;48.586;10.032;2022-08-19T10:41:15;29.07;;;25.90;;
1507;SDS011;745;48.586;10.032;2022-08-19T10:45:51;27.13;;;22.73;;
1507;SDS011;745;48.586;10.032;2022-08-19T10:50:25;37.80;;;32.70;;
1507;SDS011;745;48.586;10.032;2022-08-19T10:55:14;34.83;;;28.47;;
1507;SDS011;745;48.586;10.032;2022-08-19T11:00:04;37.93;;;31.93;;
1507;SDS011;745;48.586;10.032;2022-08-19T11:04:35;34.10;;;29.70;;
1507;SDS011;745;48.586;10.032;2022-08-19T11:09:07;31.77;;;26.67;;
1507;SDS011;745;48.586;10.032;2022-08-19T11:13:39;30.20;;;25.93;;
1507;SDS011;745;48.586;10.032;2022-08-19T11:18:11;31.23;;;26.90;;
1507;SDS011;745;48.586;10.032;2022-08-19T11:22:42;33.77;;;29.37;;
1507;SDS011;745;48.586;10.032;2022-08-19T11:27:13;27.80;;;24.83;;
1507;SDS011;745;48.586;10.032;2022-08-19T11:31:44;26.40;;;23.60;;
1507;SDS011;745;48.586;10.032;2022-08-19T11:36:16;23.80;;;21.40;;
1507;SDS011;745;48.586;10.032;2022-08-19T11:40:53;24.00;;;21.60;;
1507;SDS011;745;48.586;10.032;2022-08-19T11:45:28;30.43;;;26.53;;
1507;SDS011;745;48.586;10.032;2022-08-19T11:50:01;26.37;;;23.57;;
1507;SDS011;745;48.586;10.032;2022-08-19T11:54:31;25.80;;;23.10;;
1507;SDS011;745;48.586;10.032;2022-08-19T11:59:03;20.20;;;18.20;;
1507;SDS011;745;48.586;10.032;2022-08-19T12:03:33;22.93;;;20.60;;
1507;SDS011;745;48.586;10.032;2022-08-19T12:08:04;20.27;;;18.30;;
1507;SDS011;745;48.586;10.032;2022-08-19T12:12:35;16.70;;;15.13;;
1507;SDS011;745;48.586;10.032;2022-08-19T12:17:05;15.90;;;14.40;;
1507;SDS011;745;48.586;10.032;2022-08-19T12:21:38;14.20;;;12.90;;
1507;SDS011;745;48.586;10.032;2022-08-19T12:26:10;14.47;;;13.07;;
1507;SDS011;745;48.586;10.032;2022-08-19T12:30:40;12.00;;;10.90;;
1507;SDS011;745;48.586;10.032;2022-08-19T12:35:11;12.93;;;11.73;;
1507;SDS011;745;48.586;10.032;2022-08-19T12:39:42;13.37;;;11.97;;
1507;SDS011;745;48.586;10.032;2022-08-19T12:44:13;11.77;;;10.67;;
1507;SDS011;745;48.586;10.032;2022-08-19T12:48:44;13.10;;;11.80;;
1507;SDS011;745;48.586;10.032;2022-08-19T12:53:15;12.20;;;11.00;;
1507;SDS011;745;48.586;10.032;2022-08-19T12:57:46;10.50;;;9.60;;
1507;SDS011;745;48.586;10.032;2022-08-19T13:02:18;11.30;;;10.20;;
1507;SDS011;745;48.586;10.032;2022-08-19T13:06:49;10.03;;;9.03;;
1507;SDS011;745;48.586;10.032;2022-08-19T13:11:20;8.40;;;7.70;;
1507;SDS011;745;48.586;10.032;2022-08-19T13:15:59;6.83;;;6.13;;
1507;SDS011;745;48.586;10.032;2022-08-19T13:20:35;7.33;;;6.67;;
1507;SDS011;745;48.586;10.032;2022-08-19T13:25:06;6.23;;;5.63;;
1507;SDS011;745;48.586;10.032;2022-08-19T13:29:39;8.03;;;7.33;;
1507;SDS011;745;48.586;10.032;2022-08-19T13:34:31;8.53;;;7.83;;
1507;SDS011;745;48.586;10.032;2022-08-19T13:39:04;9.97;;;9.07;;
1507;SDS011;745;48.586;10.032;2022-08-19T13:43:35;7.77;;;7.07;;
1507;SDS011;745;48.586;10.032;2022-08-19T13:48:07;10.70;;;9.80;;
1507;SDS011;745;48.586;10.032;2022-08-19T13:52:41;10.43;;;9.47;;
1507;SDS011;745;48.586;10.032;2022-08-19T13:57:12;12.20;;;11.00;;
1507;SDS011;745;48.586;10.032;2022-08-19T14:01:43;13.80;;;12.50;;
1507;SDS011;745;48.586;10.032;2022-08-19T14:06:14;12.17;;;11.07;;
1507;SDS011;745;48.586;10.032;2022-08-19T14:10:45;13.40;;;12.13;;
1507;SDS011;745;48.586;10.032;2022-08-19T14:15:15;11.40;;;10.40;;
1507;SDS011;745;48.586;10.032;2022-08-19T14:19:47;12.50;;;11.37;;
1507;SDS011;745;48.586;10.032;2022-08-19T14:24:18;12.17;;;11.07;;
1507;SDS011;745;48.586;10.032;2022-08-19T14:28:48;12.67;;;11.50;;
1507;SDS011;745;48.586;10.032;2022-08-19T14:33:19;12.20;;;11.10;;
1507;SDS011;745;48.586;10.032;2022-08-19T14:37:50;11.40;;;10.47;;
1507;SDS011;745;48.586;10.032;2022-08-19T14:42:25;11.50;;;10.50;;
1507;SDS011;745;48.586;10.032;2022-08-19T14:46:55;11.03;;;10.13;;
1507;SDS011;745;48.586;10.032;2022-08-19T14:51:26;11.67;;;10.57;;
1507;SDS011;745;48.586;10.032;2022-08-19T14:55:56;11.40;;;10.40;;
1507;SDS011;745;48.586;10.032;2022-08-19T15:00:27;10.33;;;9.43;;
1507;SDS011;745;48.586;10.032;2022-08-19T15:04:58;9.73;;;8.93;;
1507;SDS011;745;48.586;10.032;2022-08-19T15:09:29;9.27;;;8.47;;
1507;SDS011;745;48.586;10.032;2022-08-19T15:13:59;8.90;;;8.20;;
1507;SDS011;745;48.586;10.032;2022-08-19T15:18:31;9.40;;;8.60;;
1507;SDS011;745;48.586;10.032;2022-08-19T15:23:02;8.07;;;7.43;;
1507;SDS011;745;48.586;10.032;2022-08-19T15:27:33;9.40;;;8.60;;
1507;SDS011;745;48.586;10.032;2022-08-19T15:32:05;8.00;;;7.37;;
1507;SDS011;745;48.586;10.032;2022-08-19T15:36:37;7.50;;;6.90;;
1507;SDS011;745;48.586;10.032;2022-08-19T15:41:16;8.80;;;8.00;;
1507;SDS011;745;48.586;10.032;2022-08-19T15:45:54;12.60;;;11.40;;
1507;SDS011;745;48.586;10.032;2022-08-19T15:50:25;11.70;;;10.60;;
1507;SDS011;745;48.586;10.032;2022-08-19T15:54:55;16.07;;;14.47;;
1507;SDS011;745;48.586;10.032;2022-08-19T15:59:26;16.90;;;15.20;;
1507;SDS011;745;48.586;10.032;2022-08-19T16:04:15;13.00;;;11.87;;
1507;SDS011;745;48.586;10.032;2022-08-19T16:09:05;13.40;;;12.27;;
1507;SDS011;745;48.586;10.032;2022-08-19T16:13:35;17.40;;;15.80;;
1507;SDS011;745;48.586;10.032;2022-08-19T16:18:06;14.70;;;13.37;;
1507;SDS011;745;48.586;10.032;2022-08-19T16:22:37;14.13;;;12.83;;
1507;SDS011;745;48.586;10.032;2022-08-19T16:27:08;12.53;;;11.53;;
1507;SDS011;745;48.586;10.032;2022-08-19T16:31:41;10.67;;;9.77;;
1507;SDS011;745;48.586;10.032;2022-08-19T16:36:12;15.53;;;14.10;;
1507;SDS011;745;48.586;10.032;2022-08-19T16:40:44;13.10;;;11.90;;
1507;SDS011;745;48.586;10.032;2022-08-19T16:45:15;11.70;;;10.70;;
1507;SDS011;745;48.586;10.032;2022-08-19T16:49:48;11.57;;;10.57;;
1507;SDS011;745;48.586;10.032;2022-08-19T16:54:19;12.17;;;11.07;;
1507;SDS011;745;48.586;10.032;2022-08-19T16:58:49;13.53;;;12.23;;
1507;SDS011;745;48.586;10.032;2022-08-19T17:03:20;15.90;;;14.30;;
1507;SDS011;745;48.586;10.032;2022-08-19T17:07:54;12.67;;;11.50;;
1507;SDS011;745;48.586;10.032;2022-08-19T17:12:25;11.23;;;10.30;;
1507;SDS011;745;48.586;10.032;2022-08-19T17:16:57;10.10;;;9.30;;
1507;SDS011;745;48.586;10.032;2022-08-19T17:21:29;10.70;;;9.80;;
1507;SDS011;745;48.586;10.032;2022-08-19T17:26:01;11.37;;;10.37;;
1507;SDS011;745;48.586;10.032;2022-08-19T17:30:32;13.73;;;12.47;;
1507;SDS011;745;48.586;10.032;2022-08-19T17:35:03;13.50;;;12.20;;
1507;SDS011;745;48.586;10.032;2022-08-19T17:39:34;12.77;;;11.57;;
1507;SDS011;745;48.586;10.032;2022-08-19T17:44:05;10.70;;;9.80;;
1507;SDS011;745;48.586;10.032;2022-08-19T17:48:41;10.67;;;9.73;;
1507;SDS011;745;48.586;10.032;2022-08-19T17:53:11;11.20;;;10.30;;
1507;SDS011;745;48.586;10.032;2022-08-19T17:57:42;11.07;;;10.07;;
1507;SDS011;745;48.586;10.032;2022-08-19T18:02:13;11.73;;;10.73;;
1507;SDS011;745;48.586;10.032;2022-08-19T18:06:44;15.47;;;14.00;;
1507;SDS011;745;48.586;10.032;2022-08-19T18:11:15;19.27;;;17.33;;
1507;SDS011;745;48.586;10.032;2022-08-19T18:15:46;16.63;;;15.03;;
1507;SDS011;745;48.586;10.032;2022-08-19T18:20:17;16.13;;;14.47;;
1507;SDS011;745;48.586;10.032;2022-08-19T18:24:48;18.57;;;16.77;;
1507;SDS011;745;48.586;10.032;2022-08-19T18:29:18;14.73;;;13.30;;
1507;SDS011;745;48.586;10.032;2022-08-19T18:33:49;15.73;;;14.23;;
1507;SDS011;745;48.586;10.032;2022-08-19T18:38:21;17.63;;;15.90;;
1507;SDS011;745;48.586;10.032;2022-08-19T18:43:11;16.10;;;14.60;;
1507;SDS011;745;48.586;10.032;2022-08-19T18:48:01;16.60;;;15.10;;
1507;SDS011;745;48.586;10.032;2022-08-19T18:52:51;19.23;;;17.33;;
1507;SDS011;745;48.586;10.032;2022-08-19T18:57:21;19.90;;;17.87;;
1507;SDS011;745;48.586;10.032;2022-08-19T19:01:54;21.90;;;19.67;;
1507;SDS011;745;48.586;10.032;2022-08-19T19:06:30;22.33;;;20.03;;
1507;SDS011;745;48.586;10.032;2022-08-19T19:11:07;21.10;;;19.00;;
1507;SDS011;745;48.586;10.032;2022-08-19T19:15:38;18.67;;;16.87;;
1507;SDS011;745;48.586;10.032;2022-08-19T19:20:12;20.33;;;18.23;;
1507;SDS011;745;48.586;10.032;2022-08-19T19:24:43;22.37;;;20.20;;
1507;SDS011;745;48.586;10.032;2022-08-19T19:29:13;23.30;;;20.80;;
1507;SDS011;745;48.586;10.032;2022-08-19T19:33:44;24.10;;;21.50;;
1507;SDS011;745;48.586;10.032;2022-08-19T19:38:15;23.60;;;21.20;;
1507;SDS011;745;48.586;10.032;2022-08-19T19:42:46;25.13;;;22.20;;
1507;SDS011;745;48.586;10.032;2022-08-19T19:47:17;30.87;;;25.50;;
1507;SDS011;745;48.586;10.032;2022-08-19T19:51:48;27.57;;;24.77;;
1507;SDS011;745;48.586;10.032;2022-08-19T19:56:22;28.37;;;24.47;;
1507;SDS011;745;48.586;10.032;2022-08-19T20:00:52;28.87;;;25.10;;
1507;SDS011;745;48.586;10.032;2022-08-19T20:05:23;30.27;;;25.10;;
1507;SDS011;745;48.586;10.032;2022-08-19T20:15:08;38.17;;;31.13;;
1507;SDS011;745;48.586;10.032;2022-08-19T20:19:40;36.10;;;29.30;;
1507;SDS011;745;48.586;10.032;2022-08-19T20:24:18;33.23;;;28.10;;
1507;SDS011;745;48.586;10.032;2022-08-19T20:28:50;37.80;;;33.40;;
1507;SDS011;745;48.586;10.032;2022-08-19T20:33:21;33.37;;;28.70;;
1507;SDS011;745;48.586;10.032;2022-08-19T20:37:54;36.93;;;29.40;;
1507;SDS011;745;48.586;10.032;2022-08-19T20:42:24;33.10;;;27.27;;
1507;SDS011;745;48.586;10.032;2022-08-19T20:46:55;38.57;;;29.17;;
1507;SDS011;745;48.586;10.032;2022-08-19T20:51:29;37.50;;;30.13;;
1507;SDS011;745;48.586;10.032;2022-08-19T20:56:02;35.10;;;29.30;;
1507;SDS011;745;48.586;10.032;2022-08-19T21:00:33;35.27;;;29.17;;
1507;SDS011;745;48.586;10.032;2022-08-19T21:05:05;29.90;;;26.17;;
1507;SDS011;745;48.586;10.032;2022-08-19T21:09:36;24.70;;;22.03;;
1507;SDS011;745;48.586;10.032;2022-08-19T21:14:07;26.20;;;23.43;;
1507;SDS011;745;48.586;10.032;2022-08-19T21:18:39;23.13;;;20.33;;
1507;SDS011;745;48.586;10.032;2022-08-19T21:23:11;20.37;;;18.43;;
1507;SDS011;745;48.586;10.032;2022-08-19T21:27:43;21.27;;;19.17;;
1507;SDS011;745;48.586;10.032;2022-08-19T21:32:14;22.73;;;20.33;;
1507;SDS011;745;48.586;10.032;2022-08-19T21:36:45;20.93;;;18.73;;
1507;SDS011;745;48.586;10.032;2022-08-19T21:41:17;19.23;;;17.43;;
1507;SDS011;745;48.586;10.032;2022-08-19T21:45:48;18.60;;;16.80;;
1507;SDS011;745;48.586;10.032;2022-08-19T21:50:22;21.93;;;19.67;;
1507;SDS011;745;48.586;10.032;2022-08-19T21:54:53;19.27;;;17.27;;
1507;SDS011;745;48.586;10.032;2022-08-19T21:59:24;25.80;;;22.27;;
1507;SDS011;745;48.586;10.032;2022-08-19T22:03:55;24.83;;;22.47;;
1507;SDS011;745;48.586;10.032;2022-08-19T22:08:28;30.20;;;27.10;;
1507;SDS011;745;48.586;10.032;2022-08-19T22:13:15;28.70;;;25.70;;
1507;SDS011;745;48.586;10.032;2022-08-19T22:17:50;34.07;;;30.33;;
1507;SDS011;745;48.586;10.032;2022-08-19T22:22:23;33.47;;;29.83;;
1507;SDS011;745;48.586;10.032;2022-08-19T22:27:04;36.97;;;32.20;;
1507;SDS011;745;48.586;10.032;2022-08-19T22:31:35;46.70;;;39.53;;
1507;SDS011;745;48.586;10.032;2022-08-19T22:36:06;41.30;;;36.63;;
1507;SDS011;745;48.586;10.032;2022-08-19T22:40:45;34.03;;;30.57;;
1507;SDS011;745;48.586;10.032;2022-08-19T22:45:17;33.03;;;29.40;;
1507;SDS011;745;48.586;10.032;2022-08-19T22:49:48;31.23;;;27.87;;
1507;SDS011;745;48.586;10.032;2022-08-19T22:54:19;31.10;;;27.70;;
1507;SDS011;745;48.586;10.032;2022-08-19T22:58:49;30.27;;;27.03;;
1507;SDS011;745;48.586;10.032;2022-08-19T23:03:20;24.70;;;21.90;;
1507;SDS011;745;48.586;10.032;2022-08-19T23:07:51;21.20;;;19.20;;
1507;SDS011;745;48.586;10.032;2022-08-19T23:12:29;21.03;;;19.03;;
1507;SDS011;745;48.586;10.032;2022-08-19T23:17:05;16.73;;;15.10;;
1507;SDS011;745;48.586;10.032;2022-08-19T23:21:39;16.80;;;15.20;;
1507;SDS011;745;48.586;10.032;2022-08-19T23:26:11;15.47;;;13.97;;
1507;SDS011;745;48.586;10.032;2022-08-19T23:30:43;13.30;;;12.10;;
1507;SDS011;745;48.586;10.032;2022-08-19T23:35:14;13.50;;;12.30;;
1507;SDS011;745;48.586;10.032;2022-08-19T23:39:45;10.73;;;9.77;;
1507;SDS011;745;48.586;10.032;2022-08-19T23:44:15;11.03;;;10.03;;
1507;SDS011;745;48.586;10.032;2022-08-19T23:48:46;11.13;;;10.13;;
1507;SDS011;745;48.586;10.032;2022-08-19T23:53:17;12.10;;;10.90;;
1507;SDS011;745;48.586;10.032;2022-08-19T23:57:48;10.20;;;9.03;;
